Terminal Aerodrome Forecast
Issued by NWS

Home | Current Version | Previous Version | Text Only | Print | Product List | Glossary On
Versions: 1 2 3 4 5 6 7 8 9 10 11 12 13 14 15 16 17 18 19 20 21 22
000
FTUS45 KGJT 130520
TAFMTJ
TAF
KMTJ 130520Z 1306/1406 17004KT P6SM FEW250
     FM131000 14007KT P6SM SCT250
     FM131500 VRB03KT P6SM SCT250
     FM131900 34004KT P6SM FEW250
     FM140200 14005KT P6SM FEW250=

USA.gov is the U.S. government's official web portal to all federal, state and local government web resources and services.